Time;durP1;ratioP1;P1;durP2;ratioP2;P2;SDS_P1;SDS_P2;PMS_P1;PMS_P2;Temp;Humidity;BMP_temperature;BMP_pressure;BME280_temperature;BME280_humidity;BME280_pressure;Samples;Min_cycle;Max_cycle;Signal;HPM_P1;HPM_P2
2022/04/02 00:00:42;;;;;;;1.60;1.50;;;15.00;47.50;16.20;100359.00;;;;4991578;28;20176;-54
2022/04/02 00:03:08;;;;;;;2.23;1.80;;;14.90;47.40;16.20;100365.00;;;;4989669;28;20219;-53
2022/04/02 00:05:33;;;;;;;1.90;1.80;;;15.00;47.40;16.10;100364.00;;;;4990560;28;20211;-53
2022/04/02 00:07:59;;;;;;;1.80;1.70;;;14.90;47.40;16.10;100366.00;;;;4989123;28;20176;-53
2022/04/02 00:10:25;;;;;;;1.90;1.80;;;14.90;47.40;16.10;100366.00;;;;4990268;28;20208;-52
2022/04/02 00:12:53;;;;;;;2.00;1.90;;;14.90;47.40;16.10;100374.00;;;;4990333;28;20239;-53
2022/04/02 00:15:19;;;;;;;1.90;1.80;;;14.80;47.40;16.10;100379.00;;;;4989057;28;20180;-53
2022/04/02 00:17:44;;;;;;;1.90;1.80;;;14.80;47.40;16.10;100377.00;;;;4988836;28;20207;-54
2022/04/02 00:20:11;;;;;;;1.87;1.77;;;14.90;47.50;16.00;100371.00;;;;4988725;28;20204;-53
2022/04/02 00:22:36;;;;;;;1.70;1.60;;;14.80;47.50;16.00;100369.00;;;;4990148;28;20239;-53
2022/04/02 00:25:03;;;;;;;1.90;1.80;;;14.80;47.70;16.00;100375.00;;;;4990483;28;20204;-53
2022/04/02 00:27:28;;;;;;;1.93;1.83;;;14.80;47.60;16.00;100378.00;;;;4989180;28;20172;-54
2022/04/02 00:29:54;;;;;;;1.70;1.60;;;14.80;47.50;16.00;100369.00;;;;4988605;28;20226;-54
2022/04/02 00:32:20;;;;;;;2.20;1.80;;;14.80;47.60;16.00;100382.00;;;;4990011;28;20169;-54
2022/04/02 00:34:47;;;;;;;1.70;1.60;;;14.80;47.60;16.00;100372.00;;;;4990314;28;20721;-53
2022/04/02 00:37:12;;;;;;;1.70;1.60;;;14.80;47.60;16.00;100381.00;;;;4988395;28;20672;-52
2022/04/02 00:39:38;;;;;;;1.80;1.70;;;14.70;47.70;15.90;100383.00;;;;4988633;28;20204;-53
2022/04/02 00:42:04;;;;;;;2.00;1.90;;;14.80;47.60;15.90;100384.00;;;;4990551;28;20192;-52
2022/04/02 00:44:30;;;;;;;2.07;1.87;;;14.70;47.60;15.90;100386.00;;;;4990271;28;20223;-52
2022/04/02 00:46:56;;;;;;;1.90;1.77;;;14.80;47.50;15.90;100357.00;;;;4990150;28;20584;-52
2022/04/02 00:49:21;;;;;;;1.80;1.70;;;14.70;47.60;15.90;100379.00;;;;4989007;28;20196;-52
2022/04/02 00:51:47;;;;;;;1.80;1.70;;;14.70;47.60;15.90;100383.00;;;;4989905;28;20247;-52
2022/04/02 00:54:22;;;;;;;2.03;1.73;;;14.60;47.70;15.80;100383.00;;;;4988606;28;20675;-52
2022/04/02 00:56:48;;;;;;;1.80;1.70;;;14.60;47.90;15.80;100378.00;;;;4989694;28;20195;-53
2022/04/02 00:59:15;;;;;;;1.80;1.70;;;14.60;48.00;15.80;100386.00;;;;4988786;28;20200;-52
2022/04/02 01:01:41;;;;;;;2.00;1.90;;;14.60;48.00;15.80;100387.00;;;;4990134;28;20184;-52
2022/04/02 01:04:07;;;;;;;2.67;1.70;;;14.50;47.90;15.70;100387.00;;;;4988474;28;20200;-53
2022/04/02 01:06:33;;;;;;;1.90;1.80;;;14.50;47.90;15.70;100394.00;;;;4989200;28;20580;-53
2022/04/02 01:08:59;;;;;;;1.80;1.70;;;14.50;48.00;15.70;100382.00;;;;4988203;28;20279;-53
2022/04/02 01:11:38;;;;;;;2.10;2.00;;;14.40;48.00;15.70;100391.00;;;;4989441;28;20708;-52
2022/04/02 01:14:04;;;;;;;1.83;1.73;;;14.40;48.10;15.70;100395.00;;;;4989417;28;20195;-53
2022/04/02 01:16:32;;;;;;;1.90;1.80;;;14.40;47.90;15.70;100390.00;;;;4989157;28;20220;-52
2022/04/02 01:18:58;;;;;;;1.80;1.70;;;14.50;48.00;15.70;100395.00;;;;4989582;28;20211;-52
2022/04/02 01:21:23;;;;;;;1.90;1.80;;;14.50;48.00;15.70;100386.00;;;;4989493;28;20176;-53
2022/04/02 01:23:49;;;;;;;2.00;1.90;;;14.40;47.80;15.60;100389.00;;;;4988015;28;20391;-52
2022/04/02 01:26:15;;;;;;;2.00;1.90;;;14.40;47.90;15.60;100388.00;;;;4989150;28;20188;-53
2022/04/02 01:28:41;;;;;;;1.90;1.80;;;14.40;48.00;15.60;100384.00;;;;4972088;28;20200;-52
2022/04/02 01:31:07;;;;;;;1.80;1.70;;;14.30;47.90;15.60;100399.00;;;;4988540;28;20230;-52
2022/04/02 01:33:33;;;;;;;1.80;1.70;;;14.30;48.00;15.60;100398.00;;;;4989964;28;20168;-52
2022/04/02 01:36:04;;;;;;;1.80;1.70;;;14.30;48.10;15.60;100401.00;;;;4990318;28;20173;-52
2022/04/02 01:38:30;;;;;;;1.80;1.70;;;14.30;48.10;15.60;100323.00;;;;4990998;28;20204;-52
2022/04/02 01:40:56;;;;;;;1.90;1.80;;;14.30;48.10;15.50;100397.00;;;;4992218;28;20176;-52
2022/04/02 01:43:23;;;;;;;1.90;1.80;;;14.30;48.00;15.50;100398.00;;;;4992137;28;20180;-52
2022/04/02 01:45:54;;;;;;;1.97;1.87;;;14.30;48.20;15.50;100396.00;;;;4993109;28;20207;-52
2022/04/02 01:48:20;;;;;;;1.80;1.70;;;14.30;48.10;15.50;100397.00;;;;4993100;28;20176;-52
2022/04/02 01:50:45;;;;;;;1.83;1.73;;;14.30;48.10;15.50;100389.00;;;;4975539;28;20691;-54
2022/04/02 01:53:11;;;;;;;1.90;1.80;;;14.20;48.30;15.50;100403.00;;;;4991841;28;20235;-53
2022/04/02 01:55:37;;;;;;;2.00;1.90;;;14.20;48.20;15.40;100407.00;;;;4993091;28;20645;-54
2022/04/02 01:58:03;;;;;;;2.20;2.00;;;14.20;48.20;15.40;100412.00;;;;4992499;28;20177;-53
2022/04/02 02:00:29;;;;;;;1.83;1.73;;;14.20;48.30;15.40;100412.00;;;;4991652;28;20203;-53
2022/04/02 02:02:55;;;;;;;1.73;1.63;;;14.10;48.30;15.40;100401.00;;;;4992625;28;20184;-53
2022/04/02 02:05:20;;;;;;;1.90;1.80;;;14.20;48.40;15.40;100402.00;;;;4992877;28;20196;-53
2022/04/02 02:07:50;;;;;;;2.00;1.90;;;14.10;48.30;15.40;100399.00;;;;4991143;28;20172;-53
2022/04/02 02:10:15;;;;;;;2.10;2.00;;;14.10;48.50;15.40;100371.00;;;;4991524;28;20212;-52
2022/04/02 02:12:42;;;;;;;1.97;1.87;;;14.10;48.30;15.30;100401.00;;;;4991691;28;20194;-53
2022/04/02 02:15:08;;;;;;;1.90;1.80;;;14.10;48.40;15.30;100396.00;;;;4992790;28;20658;-54
2022/04/02 02:17:34;;;;;;;1.97;1.87;;;14.10;48.50;15.30;100399.00;;;;4992716;28;20180;-53
2022/04/02 02:19:59;;;;;;;2.00;1.90;;;14.10;48.40;15.30;100405.00;;;;4992653;28;20676;-53
2022/04/02 02:22:25;;;;;;;1.90;1.80;;;14.10;48.50;15.30;100394.00;;;;4991223;28;20192;-53
2022/04/02 02:24:51;;;;;;;1.80;1.70;;;14.10;48.40;15.30;100399.00;;;;4992811;28;20236;-51
2022/04/02 02:27:17;;;;;;;2.10;2.00;;;14.10;48.30;15.30;100406.00;;;;4994627;28;20591;-51
2022/04/02 02:29:42;;;;;;;1.90;1.80;;;14.00;48.40;15.20;100404.00;;;;4994142;28;20200;-52
2022/04/02 02:32:08;;;;;;;1.90;1.80;;;14.00;48.50;15.20;100412.00;;;;4994178;28;20183;-51
2022/04/02 02:37:18;;;;;;;1.90;1.80;;;13.90;48.70;15.20;100407.00;;;;4992421;28;20216;-51
2022/04/02 02:39:43;;;;;;;2.00;1.90;;;14.00;49.30;15.20;100402.00;;;;4990941;28;20611;-51
2022/04/02 02:42:09;;;;;;;1.90;1.80;;;13.90;48.40;15.20;100415.00;;;;4992104;28;20727;-53
2022/04/02 02:44:35;;;;;;;1.97;1.87;;;14.00;48.50;15.20;100410.00;;;;4991985;28;20263;-51
2022/04/02 02:47:00;;;;;;;2.10;1.90;;;13.90;48.60;15.10;100413.00;;;;4992017;28;20180;-50
2022/04/02 02:49:26;;;;;;;2.00;1.90;;;13.80;48.50;15.10;100422.00;;;;4991059;28;20560;-53
2022/04/02 02:51:52;;;;;;;1.90;1.80;;;13.80;48.70;15.10;100411.00;;;;4991721;28;20173;-52
2022/04/02 02:54:18;;;;;;;1.67;1.57;;;13.90;48.70;15.10;100418.00;;;;4991861;28;20235;-53
2022/04/02 02:56:43;;;;;;;1.70;1.60;;;13.90;48.60;15.10;100418.00;;;;4991944;28;20723;-52
2022/04/02 02:59:09;;;;;;;1.80;1.70;;;13.90;48.60;15.10;100417.00;;;;4991957;28;20207;-52
2022/04/02 03:01:35;;;;;;;2.00;1.90;;;13.80;48.70;15.10;100418.00;;;;4992301;28;20177;-51
2022/04/02 03:04:01;;;;;;;1.80;1.70;;;13.80;48.60;15.00;100419.00;;;;4990541;28;20204;-52
2022/04/02 03:06:26;;;;;;;1.90;1.80;;;13.80;48.60;15.00;100415.00;;;;4991635;28;20243;-52
2022/04/02 03:08:52;;;;;;;1.90;1.80;;;13.80;48.70;15.00;100425.00;;;;4991825;28;20207;-52
2022/04/02 03:11:18;;;;;;;2.10;1.90;;;13.80;48.60;15.00;100428.00;;;;4991171;28;20618;-52
2022/04/02 03:13:44;;;;;;;1.80;1.70;;;13.80;48.70;15.00;100422.00;;;;4992397;28;20203;-53
2022/04/02 03:16:09;;;;;;;1.90;1.80;;;13.70;48.60;15.00;100435.00;;;;4991507;28;20177;-51
2022/04/02 03:18:35;;;;;;;1.90;1.80;;;13.70;48.60;15.00;100434.00;;;;4987634;28;20270;-52
2022/04/02 03:21:01;;;;;;;1.90;1.80;;;13.70;48.50;15.00;100442.00;;;;4983388;28;20196;-52
2022/04/02 03:23:26;;;;;;;1.90;1.80;;;13.70;48.70;14.90;100433.00;;;;4996979;28;20212;-53
2022/04/02 03:25:52;;;;;;;1.83;1.73;;;13.70;48.50;14.90;100445.00;;;;4984548;28;20575;-52
2022/04/02 03:28:18;;;;;;;2.70;1.80;;;13.70;48.50;14.90;100445.00;;;;4991043;28;20692;-51
2022/04/02 03:30:44;;;;;;;2.60;1.87;;;13.70;49.40;14.90;100437.00;;;;4991163;28;20173;-53
2022/04/02 03:33:10;;;;;;;2.57;1.63;;;13.70;48.80;14.90;100438.00;;;;4989502;28;20180;-53
2022/04/02 03:35:36;;;;;;;3.07;1.80;;;13.70;48.70;14.90;100425.00;;;;4990743;28;20523;-52
2022/04/02 03:38:02;;;;;;;2.43;1.90;;;13.70;48.70;14.90;100445.00;;;;4989459;28;20290;-52
2022/04/02 03:40:27;;;;;;;4.00;2.00;;;13.60;49.20;14.90;100442.00;;;;4989190;28;20677;-51
2022/04/02 03:42:53;;;;;;;2.57;1.70;;;13.60;49.00;14.90;100444.00;;;;4990918;28;20188;-52
2022/04/02 03:45:20;;;;;;;3.73;2.03;;;13.70;49.50;14.80;100441.00;;;;4990892;28;20673;-52
2022/04/02 03:47:46;;;;;;;2.50;1.90;;;13.70;49.20;14.80;100448.00;;;;4989545;28;20180;-52
2022/04/02 03:50:12;;;;;;;2.03;1.70;;;13.70;49.00;14.80;100441.00;;;;4990054;28;20192;-52
2022/04/02 03:52:38;;;;;;;4.80;2.13;;;13.70;48.80;14.90;100446.00;;;;4989140;28;20259;-52
2022/04/02 03:55:05;;;;;;;2.97;1.90;;;13.70;48.70;14.90;100444.00;;;;4988966;28;20336;-52
2022/04/02 03:57:31;;;;;;;2.10;1.67;;;13.80;48.70;14.90;100453.00;;;;4990335;28;20180;-52
2022/04/02 03:59:57;;;;;;;2.73;1.90;;;13.70;48.50;14.90;100451.00;;;;4990047;28;20232;-52
2022/04/02 04:02:22;;;;;;;2.47;1.90;;;13.70;48.50;14.90;100454.00;;;;4988821;28;20639;-52
2022/04/02 04:04:48;;;;;;;2.13;1.80;;;13.70;48.50;14.90;100445.00;;;;4990173;28;20246;-52
2022/04/02 04:07:15;;;;;;;1.83;1.73;;;13.70;48.40;14.90;100451.00;;;;4990208;28;20329;-52
2022/04/02 04:09:40;;;;;;;3.10;2.00;;;13.70;48.40;14.90;100464.00;;;;4989934;28;20291;-51
2022/04/02 04:12:08;;;;;;;1.73;1.63;;;13.70;48.30;14.90;100461.00;;;;4990000;28;20252;-52
2022/04/02 04:14:33;;;;;;;2.57;1.80;;;13.70;48.30;14.90;100442.00;;;;4990387;28;20354;-52
2022/04/02 04:16:59;;;;;;;2.53;1.80;;;13.70;48.40;14.90;100470.00;;;;4988395;28;20696;-51
2022/04/02 04:19:25;;;;;;;2.47;1.90;;;13.70;48.30;14.90;100476.00;;;;4988658;28;20208;-51
2022/04/02 04:21:50;;;;;;;1.77;1.67;;;13.60;48.30;14.90;100469.00;;;;4989735;28;20184;-52
2022/04/02 04:24:16;;;;;;;6.13;1.90;;;13.70;48.40;14.90;100476.00;;;;4990074;28;20664;-51
2022/04/02 04:26:42;;;;;;;3.50;1.87;;;13.60;48.30;14.90;100464.00;;;;4990083;28;20172;-52
2022/04/02 04:29:08;;;;;;;6.23;2.10;;;13.70;48.50;14.80;100468.00;;;;4990119;28;20279;-50
2022/04/02 04:31:34;;;;;;;5.20;2.00;;;13.60;48.40;14.80;100469.00;;;;4989505;28;20180;-54
2022/04/02 04:33:59;;;;;;;5.17;2.30;;;13.60;48.40;14.80;100473.00;;;;4990311;28;20180;-52
2022/04/02 04:36:25;;;;;;;8.33;2.27;;;13.60;48.80;14.80;100483.00;;;;4989768;28;20391;-52
2022/04/02 04:38:51;;;;;;;5.50;2.27;;;13.50;49.10;14.80;100477.00;;;;4989687;28;20208;-51
2022/04/02 04:41:17;;;;;;;3.97;1.97;;;13.50;48.90;14.80;100484.00;;;;4988128;28;20180;-52
2022/04/02 04:43:43;;;;;;;8.30;2.37;;;13.50;48.60;14.80;100485.00;;;;4989910;28;20181;-52
2022/04/02 04:46:09;;;;;;;7.93;2.20;;;13.60;48.60;14.80;100463.00;;;;4989000;28;20176;-52
2022/04/02 04:48:38;;;;;;;3.10;2.00;;;13.50;48.50;14.80;100498.00;;;;4989692;28;20192;-52
2022/04/02 04:51:04;;;;;;;4.23;1.93;;;13.50;48.50;14.80;100502.00;;;;4989336;28;20228;-52
2022/04/02 04:53:31;;;;;;;5.50;1.90;;;13.50;48.40;14.70;100500.00;;;;4989634;28;20224;-52
2022/04/02 04:55:57;;;;;;;2.80;1.87;;;13.50;48.40;14.70;100502.00;;;;4987241;28;20176;-52
2022/04/02 04:58:23;;;;;;;2.33;2.03;;;13.50;48.40;14.70;100505.00;;;;4989250;28;20233;-51
2022/04/02 05:00:49;;;;;;;3.23;2.10;;;13.50;48.40;14.70;100499.00;;;;4987658;28;20225;-52
2022/04/02 05:03:14;;;;;;;3.67;1.73;;;13.50;48.50;14.70;100504.00;;;;4989158;28;20176;-52
2022/04/02 05:05:40;;;;;;;3.07;1.70;;;13.50;48.40;14.70;100509.00;;;;4989456;28;20196;-51
2022/04/02 05:08:06;;;;;;;2.40;1.63;;;13.50;48.40;14.70;100509.00;;;;4989234;28;20522;-52
2022/04/02 05:10:33;;;;;;;2.67;1.80;;;13.50;48.40;14.70;100506.00;;;;4987130;28;20204;-51
2022/04/02 05:12:59;;;;;;;2.20;1.80;;;13.50;48.50;14.70;100523.00;;;;4987316;28;20649;-50
2022/04/02 05:15:25;;;;;;;3.13;2.00;;;13.50;48.30;14.70;100521.00;;;;4988255;28;20173;-52
2022/04/02 05:17:50;;;;;;;5.07;1.97;;;13.50;48.30;14.70;100516.00;;;;4989391;28;20216;-50
2022/04/02 05:20:17;;;;;;;4.10;2.00;;;13.50;48.30;14.70;100517.00;;;;4989290;28;20409;-52
2022/04/02 05:22:44;;;;;;;2.90;1.90;;;13.50;48.30;14.60;100517.00;;;;4988333;28;20194;-51
2022/04/02 05:25:10;;;;;;;2.03;1.77;;;13.40;48.20;14.70;100522.00;;;;4988887;28;20222;-51
2022/04/02 05:27:36;;;;;;;2.40;1.73;;;13.40;48.30;14.60;100524.00;;;;4989239;28;20177;-51
2022/04/02 05:30:03;;;;;;;1.70;1.60;;;13.40;48.30;14.40;100533.00;;;;4988703;28;20204;-52
2022/04/02 05:32:30;;;;;;;2.90;1.70;;;13.40;48.30;14.60;100532.00;;;;4987460;28;20238;-50
2022/04/02 05:34:56;;;;;;;2.83;1.83;;;13.40;48.20;14.60;100538.00;;;;4989072;28;20720;-51
2022/04/02 05:37:23;;;;;;;2.10;1.80;;;13.40;48.20;14.60;100544.00;;;;4987577;28;20595;-52
2022/04/02 05:39:48;;;;;;;1.80;1.70;;;13.30;48.20;14.60;100548.00;;;;4988890;28;20218;-51
2022/04/02 05:42:14;;;;;;;2.80;1.90;;;13.30;48.20;14.60;100547.00;;;;4988978;28;20638;-51
2022/04/02 05:44:40;;;;;;;3.33;1.80;;;13.30;48.20;14.60;100548.00;;;;4989343;28;20555;-50
2022/04/02 05:47:06;;;;;;;2.73;1.70;;;13.30;48.20;14.60;100556.00;;;;4988972;28;20172;-51
2022/04/02 05:49:31;;;;;;;2.90;1.87;;;13.30;48.20;14.60;100557.00;;;;4988634;28;20454;-51
2022/04/02 05:51:58;;;;;;;1.93;1.60;;;13.30;48.20;14.60;100552.00;;;;4989018;28;20179;-51
2022/04/02 05:54:23;;;;;;;2.17;1.63;;;13.30;48.20;14.50;100560.00;;;;4988647;28;20196;-52
2022/04/02 05:56:50;;;;;;;1.60;1.50;;;13.30;48.20;14.50;100564.00;;;;4988720;28;20231;-51
2022/04/02 05:59:15;;;;;;;2.17;1.70;;;13.30;48.20;14.50;100572.00;;;;4989160;28;20200;-51
2022/04/02 06:01:41;;;;;;;1.80;1.70;;;13.20;48.10;14.50;100572.00;;;;4988542;28;20205;-51
2022/04/02 06:04:07;;;;;;;2.50;1.83;;;13.30;48.20;14.50;100573.00;;;;4988779;28;20558;-51
2022/04/02 06:06:32;;;;;;;3.07;1.80;;;13.20;48.10;14.50;100577.00;;;;4988814;28;20219;-52
2022/04/02 06:08:58;;;;;;;1.60;1.50;;;13.20;48.30;14.50;100578.00;;;;4988235;28;20211;-51
2022/04/02 06:11:24;;;;;;;1.80;1.60;;;13.20;48.20;14.50;100577.00;;;;4987102;28;20587;-51
2022/04/02 06:13:50;;;;;;;1.50;1.40;;;13.20;48.20;14.50;100583.00;;;;4988957;28;20340;-52
2022/04/02 06:16:16;;;;;;;1.70;1.60;;;13.20;48.30;14.50;100583.00;;;;4988513;28;20184;-52
2022/04/02 06:18:43;;;;;;;2.00;1.73;;;13.20;48.10;14.40;100592.00;;;;4988572;28;20315;-50
2022/04/02 06:21:09;;;;;;;1.63;1.50;;;13.20;48.10;14.40;100596.00;;;;4988367;28;20264;-50
2022/04/02 06:23:34;;;;;;;1.80;1.70;;;13.20;48.30;14.40;100593.00;;;;4987481;28;20180;-52
2022/04/02 06:26:00;;;;;;;1.87;1.60;;;13.10;48.10;14.40;100600.00;;;;4989459;28;20160;-52
2022/04/02 06:28:26;;;;;;;2.83;1.50;;;13.10;48.30;14.40;100604.00;;;;4992371;28;20231;-51
2022/04/02 06:30:52;;;;;;;1.60;1.50;;;13.10;48.30;14.40;100605.00;;;;4986684;28;20630;-52
2022/04/02 06:33:18;;;;;;;1.87;1.77;;;13.10;48.20;14.40;100610.00;;;;5006850;28;20180;-51
2022/04/02 06:35:43;;;;;;;3.23;1.60;;;13.00;48.80;14.30;100595.00;;;;4992001;28;20188;-51
2022/04/02 06:38:09;;;;;;;1.80;1.70;;;12.90;49.20;14.30;100604.00;;;;4991738;28;20172;-52
2022/04/02 06:40:35;;;;;;;4.20;1.80;;;13.00;49.40;14.30;100601.00;;;;5006497;28;20657;-50
2022/04/02 06:43:01;;;;;;;3.50;1.90;;;13.10;49.80;14.30;100606.00;;;;4991977;28;20180;-51
2022/04/02 06:45:26;;;;;;;5.37;1.60;;;13.30;49.80;14.40;100611.00;;;;4991743;28;20196;-51
2022/04/02 06:47:52;;;;;;;7.93;2.10;;;13.60;49.60;14.50;100612.00;;;;4991760;28;20180;-50
2022/04/02 06:50:18;;;;;;;3.20;1.63;;;13.90;49.40;14.60;100605.00;;;;5006547;28;20560;-51
2022/04/02 06:52:44;;;;;;;3.43;1.80;;;14.20;49.00;14.40;100639.00;;;;4989775;28;20172;-51
2022/04/02 06:55:13;;;;;;;5.43;1.77;;;14.50;48.40;14.90;100629.00;;;;4974777;28;20664;-50
2022/04/02 06:57:51;;;;;;;5.03;1.70;;;14.80;48.20;15.10;100625.00;;;;4991346;28;20434;-50
2022/04/02 07:00:18;;;;;;;2.40;1.60;;;15.20;47.70;15.30;100627.00;;;;4990379;28;20283;-52
2022/04/02 07:02:44;;;;;;;2.87;1.70;;;15.50;47.20;15.50;100634.00;;;;4991313;28;20181;-50
2022/04/02 07:05:10;;;;;;;2.90;1.70;;;15.70;46.70;15.70;100635.00;;;;4990943;28;20199;-50
2022/04/02 07:07:36;;;;;;;3.30;1.70;;;15.80;46.70;15.80;100641.00;;;;4990241;28;20183;-52
2022/04/02 07:10:04;;;;;;;4.43;2.07;;;16.00;46.50;16.00;100635.00;;;;4990420;28;20562;-52
2022/04/02 07:12:29;;;;;;;2.47;1.60;;;16.10;46.40;16.10;100646.00;;;;4990146;28;20172;-51
2022/04/02 07:14:55;;;;;;;1.93;1.80;;;16.20;46.50;16.20;100644.00;;;;4990475;28;20251;-51
2022/04/02 07:17:21;;;;;;;1.93;1.40;;;16.30;46.40;16.40;100651.00;;;;4990449;28;20165;-51
2022/04/02 07:19:47;;;;;;;2.10;1.67;;;16.40;46.20;16.50;100652.00;;;;4990709;28;20192;-52
2022/04/02 07:22:13;;;;;;;3.60;1.70;;;16.50;46.30;16.60;100653.00;;;;4990684;28;20169;-51
2022/04/02 07:24:39;;;;;;;2.73;1.70;;;16.50;46.30;16.70;100655.00;;;;4989575;28;20212;-51
2022/04/02 07:27:05;;;;;;;2.00;1.70;;;16.70;46.20;16.70;100647.00;;;;4987505;28;20221;-51
2022/04/02 07:29:31;;;;;;;3.40;1.63;;;16.70;46.40;16.80;100654.00;;;;4989982;28;20669;-51
2022/04/02 07:31:57;;;;;;;2.50;1.63;;;16.70;46.60;16.90;100655.00;;;;4989847;28;20303;-53
2022/04/02 07:34:23;;;;;;;2.07;1.70;;;16.80;47.00;17.00;100656.00;;;;4991063;28;20692;-52
2022/04/02 07:37:01;;;;;;;2.50;1.60;;;16.90;47.30;17.10;100650.00;;;;4989997;28;20566;-52
2022/04/02 07:40:06;;;;;;;1.70;1.60;;;16.90;47.30;17.20;100647.00;;;;4988389;28;20258;-51
2022/04/02 07:43:20;;;;;;;1.87;1.50;;;17.00;47.10;17.20;100667.00;;;;4991622;28;20634;-54
2022/04/02 07:45:47;;;;;;;1.70;1.60;;;17.10;47.20;17.30;100656.00;;;;4989473;28;20253;-52
2022/04/02 07:48:13;;;;;;;3.20;1.70;;;17.10;47.10;17.30;100672.00;;;;4989343;28;20153;-53
2022/04/02 07:50:44;;;;;;;1.73;1.63;;;17.10;47.10;17.40;100681.00;;;;4988881;28;20168;-52
2022/04/02 07:53:20;;;;;;;2.47;1.70;;;17.10;47.20;17.40;100641.00;;;;4990273;28;20534;-52
2022/04/02 07:55:50;;;;;;;2.07;1.53;;;17.10;47.10;17.40;100681.00;;;;4990236;28;20169;-52
2022/04/02 07:58:16;;;;;;;2.77;1.70;;;17.10;47.20;17.50;100668.00;;;;4987820;28;20187;-52
2022/04/02 08:00:42;;;;;;;1.60;1.50;;;17.10;47.40;17.50;100699.00;;;;4988057;28;20181;-52
2022/04/02 08:03:08;;;;;;;1.60;1.50;;;17.10;47.50;17.50;100705.00;;;;4987839;28;20172;-51
2022/04/02 08:05:34;;;;;;;1.70;1.60;;;17.10;47.50;17.50;100692.00;;;;4744853;28;20254;-52
2022/04/02 08:07:59;;;;;;;1.57;1.47;;;17.10;47.60;17.50;100702.00;;;;4971421;28;20172;-51
2022/04/02 08:10:27;;;;;;;2.90;1.50;;;17.00;47.70;17.50;100700.00;;;;4988485;28;20212;-52
2022/04/02 08:12:55;;;;;;;1.70;1.60;;;17.00;47.50;17.60;100706.00;;;;4991075;28;20168;-52
2022/04/02 08:15:22;;;;;;;1.80;1.60;;;17.00;47.70;17.50;100715.00;;;;4989629;28;20649;-53
2022/04/02 08:17:54;;;;;;;2.63;1.53;;;17.00;48.00;17.50;100709.00;;;;4988543;28;20263;-51
2022/04/02 08:20:20;;;;;;;2.47;1.40;;;17.00;48.30;17.50;100707.00;;;;4989991;28;20751;-52
2022/04/02 08:22:46;;;;;;;1.77;1.63;;;16.90;48.40;17.50;100705.00;;;;4997240;28;20306;-53
2022/04/02 08:25:12;;;;;;;4.47;1.83;;;17.00;48.50;17.50;100716.00;;;;5009375;28;20289;-53
2022/04/02 08:28:13;;;;;;;2.67;1.80;;;17.00;48.50;17.60;100709.00;;;;5008965;28;20221;-53
2022/04/02 08:30:48;;;;;;;3.00;1.80;;;17.00;48.40;17.60;100719.00;;;;5008268;28;20187;-52
2022/04/02 08:34:06;;;;;;;2.33;1.90;;;17.00;48.40;17.60;100722.00;;;;5008216;28;20168;-53
2022/04/02 08:36:47;;;;;;;4.57;1.70;;;17.00;48.40;17.60;100723.00;;;;5008105;28;20533;-52
2022/04/02 08:39:40;;;;;;;3.30;1.80;;;17.10;48.40;17.60;100722.00;;;;5009175;28;20275;-53
2022/04/02 08:42:43;;;;;;;2.47;1.90;;;17.10;48.00;17.60;100722.00;;;;5008231;28;20233;-53
2022/04/02 08:45:10;;;;;;;2.83;1.60;;;17.20;47.90;17.60;100741.00;;;;5008253;28;20468;-53
2022/04/02 08:48:13;;;;;;;3.90;1.70;;;17.30;48.00;17.70;100737.00;;;;5007029;28;20179;-52
2022/04/02 08:50:46;;;;;;;2.03;1.83;;;17.30;48.00;17.70;100728.00;;;;5009188;28;20177;-51
2022/04/02 08:53:16;;;;;;;1.70;1.60;;;17.30;47.70;17.70;100739.00;;;;5007802;28;20501;-52
2022/04/02 08:55:59;;;;;;;2.03;1.70;;;17.40;47.60;17.80;100742.00;;;;5009183;28;20195;-52
2022/04/02 08:58:51;;;;;;;1.87;1.70;;;17.40;47.60;17.80;100745.00;;;;5006060;28;20456;-52
2022/04/02 09:01:24;;;;;;;2.90;1.80;;;17.40;47.40;17.80;100739.00;;;;4989379;28;20633;-53
2022/04/02 09:04:37;;;;;;;3.33;1.60;;;17.40;47.30;17.80;100758.00;;;;4777419;28;22448;-53
2022/04/02 09:07:27;;;;;;;3.37;1.80;;;17.40;47.50;17.80;100767.00;;;;4987733;28;20206;-53
2022/04/02 09:10:42;;;;;;;1.77;1.60;;;17.40;48.10;17.90;100764.00;;;;4987799;28;20196;-52
2022/04/02 09:13:25;;;;;;;6.00;1.70;;;17.40;48.10;17.60;100768.00;;;;4988206;28;20168;-53
2022/04/02 09:16:01;;;;;;;2.77;1.50;;;17.40;48.10;17.80;100777.00;;;;4989210;28;20318;-52
2022/04/02 09:19:27;;;;;;;3.10;1.70;;;17.40;48.00;17.90;100710.00;;;;4988857;28;20266;-53
2022/04/02 09:22:14;;;;;;;3.63;1.70;;;17.40;48.10;17.90;100783.00;;;;4978047;28;20168;-52
2022/04/02 09:24:58;;;;;;;1.70;1.60;;;17.40;48.00;17.90;100787.00;;;;4988817;28;20575;-51
2022/04/02 09:28:06;;;;;;;4.57;1.73;;;17.40;47.80;17.90;100788.00;;;;4987905;28;20156;-53
2022/04/02 09:31:08;;;;;;;6.90;1.93;;;17.40;48.00;17.90;100789.00;;;;4987992;28;20539;-52
2022/04/02 09:33:59;;;;;;;3.10;1.60;;;17.40;48.10;17.90;100789.00;;;;4988473;28;20550;-51
2022/04/02 09:36:51;;;;;;;4.87;1.70;;;17.40;48.10;17.90;100781.00;;;;4989370;28;20193;-54
2022/04/02 09:39:42;;;;;;;4.43;1.77;;;17.40;48.10;17.90;100798.00;;;;4988997;28;20212;-51
2022/04/02 09:42:29;;;;;;;2.47;1.70;;;17.40;48.10;17.90;100809.00;;;;4988896;28;20164;-52
2022/04/02 09:45:09;;;;;;;1.70;1.60;;;17.40;48.10;17.90;100817.00;;;;4990717;28;20704;-53
2022/04/02 09:47:51;;;;;;;1.80;1.60;;;17.50;48.20;18.00;100801.00;;;;4989372;28;20171;-54
2022/04/02 09:50:24;;;;;;;2.10;1.60;;;17.50;48.20;18.00;100809.00;;;;4988934;28;20188;-51
2022/04/02 09:53:09;;;;;;;2.33;1.57;;;17.50;48.20;18.00;100802.00;;;;4988849;28;20199;-52
2022/04/02 09:56:08;;;;;;;1.70;1.47;;;17.60;48.30;18.00;100802.00;;;;4988588;28;20543;-52
2022/04/02 09:58:46;;;;;;;2.20;1.53;;;17.60;47.80;18.10;100806.00;;;;4977676;28;20195;-54
2022/04/02 10:02:03;;;;;;;3.53;1.53;;;17.60;47.70;18.10;100801.00;;;;5011175;28;20209;-52
2022/04/02 10:04:52;;;;;;;4.83;1.77;;;17.70;47.70;18.10;100818.00;;;;4815055;28;20239;-53
2022/04/02 10:07:52;;;;;;;2.53;1.80;;;17.70;47.90;18.20;100812.00;;;;4959673;28;20188;-52
2022/04/02 10:10:20;;;;;;;3.27;1.90;;;17.70;48.30;18.20;100808.00;;;;4990798;28;20267;-53
2022/04/02 10:12:48;;;;;;;3.63;2.40;;;17.60;48.50;18.20;100811.00;;;;4991641;28;20176;-53
2022/04/02 10:15:14;;;;;;;4.40;2.23;;;17.70;48.60;18.20;100804.00;;;;4990864;28;20172;-53
2022/04/02 10:17:40;;;;;;;2.30;2.10;;;17.60;49.00;18.20;100816.00;;;;4990973;28;20172;-53
2022/04/02 10:20:06;;;;;;;6.33;2.37;;;17.70;50.50;18.20;100810.00;;;;4990884;28;20196;-54
2022/04/02 10:22:38;;;;;;;2.73;2.20;;;17.60;50.90;18.20;100822.00;;;;4974837;28;20230;-54
2022/04/02 10:25:09;;;;;;;4.90;2.40;;;17.50;51.10;18.20;100819.00;;;;4991694;28;20751;-54
2022/04/02 10:27:36;;;;;;;3.40;2.17;;;17.50;50.80;18.10;100815.00;;;;4991635;28;20175;-55
2022/04/02 10:30:12;;;;;;;3.40;2.30;;;17.50;50.80;18.10;100815.00;;;;4991963;28;20571;-54
2022/04/02 10:35:44;;;;;;;3.43;2.23;;;17.40;50.90;18.10;100814.00;;;;4991972;28;20171;-53
2022/04/02 10:38:38;;;;;;;5.03;2.30;;;17.40;50.90;18.10;100820.00;;;;4990011;28;20184;-51
2022/04/02 10:41:13;;;;;;;3.10;2.20;;;17.40;50.80;18.10;100813.00;;;;4991901;28;20260;-53
2022/04/02 10:43:52;;;;;;;2.63;2.00;;;17.40;50.80;18.10;100815.00;;;;4974644;28;20182;-54
2022/04/02 10:46:20;;;;;;;5.07;2.33;;;17.30;50.90;18.00;100826.00;;;;4990098;28;20291;-53
2022/04/02 10:49:04;;;;;;;3.27;1.83;;;17.30;51.00;18.00;100805.00;;;;4991860;28;20207;-52
2022/04/02 10:51:31;;;;;;;2.10;1.90;;;17.30;51.20;18.00;100813.00;;;;4991708;28;20161;-50
2022/04/02 10:54:04;;;;;;;3.20;2.00;;;17.20;50.60;18.00;100815.00;;;;4990610;28;20165;-52
2022/04/02 10:56:44;;;;;;;4.87;2.23;;;17.20;50.30;17.90;100815.00;;;;4992273;28;20180;-53
2022/04/02 10:59:11;;;;;;;2.40;2.00;;;17.20;50.30;17.90;100806.00;;;;4990641;28;20211;-52
2022/04/02 11:01:41;;;;;;;3.07;2.23;;;17.10;50.10;17.90;100814.00;;;;4991441;28;20235;-51
2022/04/02 11:04:43;;;;;;;1.87;1.73;;;17.10;50.10;17.90;100811.00;;;;4778441;28;20196;-50
2022/04/02 11:07:09;;;;;;;2.60;2.00;;;17.00;49.90;17.80;100816.00;;;;4990435;28;20171;-52